ADDS METAR Data INFO
IDs: Format: Raw Decoded Include TAF

Data at: 0216 UTC 18 Jan 2018

K2A0 180155Z AUTO 36005KT 10SM CLR M09/M12 A3054 RMK A01
K2A0 180135Z AUTO 36005KT 10SM CLR M09/M12 A3054 RMK A01
K2A0 180115Z AUTO 01005KT 10SM CLR M09/M12 A3054 RMK A01
K2A0 180055Z AUTO 35005KT 10SM CLR M09/M12 A3054 RMK A01
K2A0 180035Z AUTO 34007KT 10SM CLR M09/M12 A3054 RMK A01
K2A0 180015Z AUTO 34005KT 10SM CLR M08/M12 A3054 RMK A01
K2A0 172355Z AUTO 34006G12KT 10SM CLR M08/M12 A3054 RMK A01
K2A0 172335Z AUTO 34007G13KT 10SM CLR M08/M12 A3054 RMK A01
K2A0 172315Z AUTO 34008G14KT 10SM CLR M07/M12 A3053 RMK A01
K2A0 172255Z AUTO 34009G14KT 10SM CLR M07/M12 A3052 RMK A01
K2A0 172235Z AUTO 35011KT 10SM CLR M06/M12 A3051 RMK A01
K2A0 172215Z AUTO 34009KT 10SM CLR M06/M12 A3051 RMK A01
K2A0 172155Z AUTO 35009G16KT 10SM CLR M05/M12 A3051 RMK A01
K2A0 172135Z AUTO 33008G15KT 10SM CLR M05/M12 A3050 RMK A01
K2A0 172115Z AUTO 33010G17KT 10SM CLR M05/M12 A3049 RMK A01
K2A0 172055Z AUTO 32009G15KT 10SM CLR M05/M12 A3049 RMK A01
K2A0 172035Z AUTO 34010KT 10SM CLR M04/M11 A3049 RMK A01
K2A0 172015Z AUTO 34012KT 10SM FEW039 M04/M11 A3049 RMK A01
K2A0 171955Z AUTO 34011KT 10SM FEW039 M04/M11 A3049 RMK A01
K2A0 171935Z AUTO 01010KT 10SM CLR M04/M11 A3049 RMK A01
K2A0 171915Z AUTO 35012G18KT 10SM CLR M05/M11 A3049 RMK A01
K2A0 171855Z AUTO 35013G19KT 10SM CLR M05/M12 A3050 RMK A01
K2A0 171835Z AUTO 34013G19KT 10SM CLR M06/M12 A3050 RMK A01
K2A0 171815Z AUTO 36009G17KT 10SM CLR M06/M12 A3051 RMK A01
K2A0 171755Z AUTO 35013KT 10SM CLR M06/M12 A3053 RMK A01
K2A0 171735Z AUTO 01010KT 10SM CLR M07/M13 A3053 RMK A01
K2A0 171715Z AUTO 34010G15KT 10SM CLR M07/M13 A3054 RMK A01
K2A0 171655Z AUTO 35011G17KT 10SM CLR M08/M13 A3055 RMK A01
K2A0 171635Z AUTO 34010KT 10SM CLR M08/M13 A3055 RMK A01
K2A0 171615Z AUTO 01012KT 10SM CLR M08/M13 A3056 RMK A01
K2A0 171555Z AUTO 35011G16KT 10SM FEW022 FEW027 M09/M14 A3055 RMK A01
K2A0 171535Z AUTO 36011KT 10SM SCT021 SCT026 M09/M14 A3055 RMK A01
K2A0 171515Z AUTO 36009KT 10SM FEW021 M10/M14 A3055 RMK A01
K2A0 171455Z AUTO 01007KT 10SM CLR M10/M15 A3054 RMK A01
K2A0 171435Z AUTO 01004KT 10SM FEW019 M11/M15 A3053 RMK A01
K2A0 171415Z AUTO 02006KT 10SM CLR M12/M16 A3051 RMK A01
K2A0 171355Z AUTO 02005KT 10SM CLR M13/M16 A3051 RMK A01
K2A0 171335Z AUTO 00000KT 10SM CLR M14/M17 A3051 RMK A01
K2A0 171315Z AUTO 00000KT 10SM CLR M15/M16 A3051 RMK A01
K2A0 171255Z AUTO 00000KT 10SM CLR M15/M17 A3050 RMK A01
K2A0 171235Z AUTO 00000KT 10SM CLR M15/M17 A3050 RMK A01
K2A0 171215Z AUTO 00000KT 10SM CLR M15/M17 A3049 RMK A01
K2A0 171155Z AUTO 00000KT 10SM CLR M14/M17 A3049 RMK A01
K2A0 171135Z AUTO 00000KT 10SM FEW029 M14/M17 A3049 RMK A01
K2A0 171115Z AUTO VRB03KT 10SM BKN029 M14/M16 A3049 RMK A01
K2A0 171055Z AUTO 00000KT 10SM BKN029 M14/M16 A3049 RMK A01
K2A0 171035Z AUTO 33003KT 10SM BKN027 M14/M16 A3048 RMK A01
K2A0 171015Z AUTO 00000KT 10SM OVC026 M14/M16 A3048 RMK A01
K2A0 170955Z AUTO 00000KT 10SM OVC025 M14/M16 A3048 RMK A01
K2A0 170935Z AUTO 00000KT 10SM BKN024 M14/M16 A3048 RMK A01
K2A0 170915Z AUTO 34003KT 10SM SCT026 M13/M16 A3048 RMK A01
K2A0 170855Z AUTO 00000KT 10SM CLR M13/M16 A3048 RMK A01
K2A0 170835Z AUTO 34003KT 10SM CLR M12/M15 A3048 RMK A01
K2A0 170815Z AUTO 34006KT 10SM BKN029 M12/M15 A3048 RMK A01
K2A0 170755Z AUTO 32004KT 10SM OVC025 M11/M15 A3049 RMK A01
K2A0 170735Z AUTO 01007KT 10SM OVC024 M10/M14 A3047 RMK A01
K2A0 170715Z AUTO 35006G11KT 10SM OVC024 M10/M14 A3048 RMK A01
K2A0 170655Z AUTO 36009KT 10SM OVC026 M10/M14 A3048 RMK A01
K2A0 170635Z AUTO 36008KT 10SM OVC026 M10/M14 A3049 RMK A01
K2A0 170615Z AUTO 34008KT 10SM OVC027 M10/M14 A3049 RMK A01
K2A0 170555Z AUTO 34006KT 10SM OVC027 M10/M14 A3049 RMK A01
K2A0 170535Z AUTO 36006KT 10SM BKN028 M10/M14 A3050 RMK A01
K2A0 170515Z AUTO 36007KT 10SM FEW029 FEW120 M10/M14 A3051 RMK A01
K2A0 170455Z AUTO 35005G11KT 10SM FEW120 M10/M14 A3051 RMK A01
K2A0 170435Z AUTO 35007KT 10SM FEW120 M10/M14 A3052 RMK A01
K2A0 170415Z AUTO 33003KT 10SM CLR M10/M14 A3053 RMK A01
K2A0 170355Z AUTO 33008KT 10SM CLR M10/M14 A3053 RMK A01
K2A0 170335Z AUTO 34010KT 10SM FEW045 M10/M13 A3052 RMK A01
K2A0 170315Z AUTO 32005G11KT 10SM BKN043 M09/M13 A3054 RMK A01
K2A0 170255Z AUTO 33007KT 10SM BKN042 BKN120 M09/M12 A3052 RMK A01
K2A0 170235Z AUTO 33007KT 10SM BKN041 OVC120 M08/M12 A3052 RMK A01
K2A0 170215Z AUTO 32008G13KT 10SM OVC041 M08/M12 A3052 RMK A01
K2A0 170155Z AUTO 31005G10KT 10SM OVC043 M08/M11 A3052 RMK A01
K2A0 170135Z AUTO 31006G13KT 10SM BKN041 M07/M11 A3052 RMK A01
K2A0 170115Z AUTO 33006G11KT 10SM OVC040 M07/M11 A3050 RMK A01
K2A0 170055Z AUTO 32005KT 10SM OVC039 M07/M10 A3050 RMK A01
K2A0 170035Z AUTO 34008KT 10SM OVC039 M06/M10 A3050 RMK A01
K2A0 170015Z AUTO 34008KT 10SM OVC037 M06/M10 A3049 RMK A01
K2A0 162355Z AUTO 33003KT 8SM BKN035 BKN055 OVC090 M07/M09 A3049 RMK A01
K2A0 162335Z AUTO 33004KT 5SM HZ BKN075 OVC090 M07/M09 A3048 RMK A01
K2A0 162315Z AUTO 32005KT 3SM HZ FEW038 FEW047 BKN075 M06/M09 A3048 RMK A01
K2A0 162255Z AUTO 33003KT 3SM HZ FEW025 SCT039 BKN046 M06/M08 A3047 RMK A01 P0002
K2A0 162235Z AUTO 33005KT 4SM HZ OVC044 M05/M08 A3046 RMK A01
K2A0 162215Z AUTO 30005KT 6SM HZ OVC040 M05/M08 A3046 RMK A01
K2A0 162155Z AUTO 32004KT 2SM BR FEW013 SCT030 OVC039 M05/M07 A3046 RMK A01
K2A0 162135Z AUTO 30004KT 2SM HZ FEW013 FEW023 OVC033 M05/M07 A3044 RMK A01
K2A0 162115Z AUTO 32005KT 2 1/2SM HZ OVC031 M04/M07 A3043 RMK A01
K2A0 162055Z AUTO 33008KT 10SM OVC030 M04/M08 A3043 RMK A01
K2A0 162035Z AUTO 33007KT 9SM OVC029 M04/M07 A3042 RMK A01
K2A0 162015Z AUTO 32005KT 5SM HZ OVC028 M04/M06 A3042 RMK A01
K2A0 161955Z AUTO 31005KT 6SM HZ OVC025 M03/M06 A3042 RMK A01
K2A0 161935Z AUTO 31005KT 9SM OVC024 M03/M06 A3041 RMK A01
K2A0 161915Z AUTO 30007KT 10SM OVC023 M03/M06 A3041 RMK A01
K2A0 161855Z AUTO 00000KT 6SM BR OVC023 M03/M04 A3041 RMK A01
K2A0 161835Z AUTO 32004KT 2SM BR OVC022 M02/M04 A3041 RMK A01
K2A0 161815Z AUTO 29006G11KT 8SM OVC021 M02/M05 A3042 RMK A01
K2A0 161755Z AUTO 28006KT 8SM OVC021 M01/M04 A3042 RMK A01
K2A0 161735Z AUTO 29007KT 9SM OVC020 M01/M04 A3042 RMK A01
K2A0 161715Z AUTO 30006G11KT 10SM OVC020 M01/M04 A3043 RMK A01
K2A0 161655Z AUTO 29009KT 10SM OVC020 M01/M04 A3044 RMK A01
K2A0 161635Z AUTO 29007KT 10SM OVC020 00/M03 A3043 RMK A01
K2A0 161615Z AUTO 29007KT 10SM BKN019 OVC070 01/M02 A3043 RMK A01
K2A0 161555Z AUTO 29005KT 10SM FEW017 OVC070 01/M02 A3044 RMK A01
K2A0 161535Z AUTO 28005KT 10SM FEW017 OVC070 01/M02 A3043 RMK A01
K2A0 161515Z AUTO VRB03KT 10SM FEW017 OVC070 01/M01 A3044 RMK A01
K2A0 161455Z AUTO 27004KT 10SM OVC070 01/M01 A3043 RMK A01
K2A0 161435Z AUTO 25003KT 10SM OVC070 00/M01 A3042 RMK A01